sensor_id;sensor_type;location;lat;lon;timestamp;temperature;humidity
60723;DHT22;46574;52.818;6.516;2023-07-09T00:01:47;23.30;99.90
60723;DHT22;46574;52.818;6.516;2023-07-09T00:04:13;23.20;99.90
60723;DHT22;46574;52.818;6.516;2023-07-09T00:06:40;23.20;99.90
60723;DHT22;46574;52.818;6.516;2023-07-09T00:09:12;23.20;99.90
60723;DHT22;46574;52.818;6.516;2023-07-09T00:11:40;23.20;99.90
60723;DHT22;46574;52.818;6.516;2023-07-09T00:14:05;23.10;99.90
60723;DHT22;46574;52.818;6.516;2023-07-09T00:16:31;23.10;99.90
60723;DHT22;46574;52.818;6.516;2023-07-09T00:18:57;23.10;99.90
60723;DHT22;46574;52.818;6.516;2023-07-09T00:21:23;23.00;99.90
60723;DHT22;46574;52.818;6.516;2023-07-09T00:23:49;23.00;99.90
60723;DHT22;46574;52.818;6.516;2023-07-09T00:26:16;23.00;99.90
60723;DHT22;46574;52.818;6.516;2023-07-09T00:28:42;22.90;99.90
60723;DHT22;46574;52.818;6.516;2023-07-09T00:31:13;22.90;99.90
60723;DHT22;46574;52.818;6.516;2023-07-09T00:33:40;22.80;99.90
60723;DHT22;46574;52.818;6.516;2023-07-09T00:36:20;22.70;99.90
60723;DHT22;46574;52.818;6.516;2023-07-09T00:38:49;22.70;99.90
60723;DHT22;46574;52.818;6.516;2023-07-09T00:41:22;22.60;99.90
60723;DHT22;46574;52.818;6.516;2023-07-09T00:43:49;22.60;99.90
60723;DHT22;46574;52.818;6.516;2023-07-09T00:49:01;22.40;99.90
60723;DHT22;46574;52.818;6.516;2023-07-09T00:51:30;22.30;99.90
60723;DHT22;46574;52.818;6.516;2023-07-09T00:54:01;22.30;99.90
60723;DHT22;46574;52.818;6.516;2023-07-09T00:56:41;22.30;99.90
60723;DHT22;46574;52.818;6.516;2023-07-09T00:59:14;22.20;99.90
60723;DHT22;46574;52.818;6.516;2023-07-09T01:01:41;22.20;99.90
60723;DHT22;46574;52.818;6.516;2023-07-09T01:04:09;22.20;99.90
60723;DHT22;46574;52.818;6.516;2023-07-09T01:06:43;22.20;99.90
60723;DHT22;46574;52.818;6.516;2023-07-09T01:09:10;22.20;99.90
60723;DHT22;46574;52.818;6.516;2023-07-09T01:11:36;22.20;99.90
60723;DHT22;46574;52.818;6.516;2023-07-09T01:14:05;22.20;99.90
60723;DHT22;46574;52.818;6.516;2023-07-09T01:16:42;22.20;99.90
60723;DHT22;46574;52.818;6.516;2023-07-09T01:19:08;22.20;99.90
60723;DHT22;46574;52.818;6.516;2023-07-09T01:21:34;22.20;99.90
60723;DHT22;46574;52.818;6.516;2023-07-09T01:27:05;22.20;99.90
60723;DHT22;46574;52.818;6.516;2023-07-09T01:29:34;22.10;99.90
60723;DHT22;46574;52.818;6.516;2023-07-09T01:31:59;22.10;99.90
60723;DHT22;46574;52.818;6.516;2023-07-09T01:34:25;22.10;99.90
60723;DHT22;46574;52.818;6.516;2023-07-09T01:36:51;22.10;99.90
60723;DHT22;46574;52.818;6.516;2023-07-09T01:39:17;22.00;99.90
60723;DHT22;46574;52.818;6.516;2023-07-09T01:41:44;22.00;99.90
60723;DHT22;46574;52.818;6.516;2023-07-09T01:44:11;22.00;99.90
60723;DHT22;46574;52.818;6.516;2023-07-09T01:46:37;21.90;99.90
60723;DHT22;46574;52.818;6.516;2023-07-09T01:49:02;21.90;99.90
60723;DHT22;46574;52.818;6.516;2023-07-09T01:51:29;21.80;99.90
60723;DHT22;46574;52.818;6.516;2023-07-09T01:53:54;21.70;99.90
60723;DHT22;46574;52.818;6.516;2023-07-09T01:56:20;21.70;99.90
60723;DHT22;46574;52.818;6.516;2023-07-09T01:58:46;21.70;99.90
60723;DHT22;46574;52.818;6.516;2023-07-09T02:01:13;21.60;99.90
60723;DHT22;46574;52.818;6.516;2023-07-09T02:03:40;21.60;99.90
60723;DHT22;46574;52.818;6.516;2023-07-09T02:06:06;21.70;99.90
60723;DHT22;46574;52.818;6.516;2023-07-09T02:08:34;21.60;99.90
60723;DHT22;46574;52.818;6.516;2023-07-09T02:11:01;21.50;99.90
60723;DHT22;46574;52.818;6.516;2023-07-09T02:13:27;21.50;99.90
60723;DHT22;46574;52.818;6.516;2023-07-09T02:15:52;21.40;99.90
60723;DHT22;46574;52.818;6.516;2023-07-09T02:18:18;21.40;99.90
60723;DHT22;46574;52.818;6.516;2023-07-09T02:20:46;21.40;99.90
60723;DHT22;46574;52.818;6.516;2023-07-09T02:23:12;21.40;99.90
60723;DHT22;46574;52.818;6.516;2023-07-09T02:25:37;21.40;99.90
60723;DHT22;46574;52.818;6.516;2023-07-09T02:28:03;21.40;99.90
60723;DHT22;46574;52.818;6.516;2023-07-09T02:30:29;21.30;99.90
60723;DHT22;46574;52.818;6.516;2023-07-09T02:32:55;21.20;99.90
60723;DHT22;46574;52.818;6.516;2023-07-09T02:35:21;21.20;99.90
60723;DHT22;46574;52.818;6.516;2023-07-09T02:37:47;21.20;99.90
60723;DHT22;46574;52.818;6.516;2023-07-09T02:40:14;21.10;99.90
60723;DHT22;46574;52.818;6.516;2023-07-09T02:42:40;21.10;99.90
60723;DHT22;46574;52.818;6.516;2023-07-09T02:45:06;21.00;99.90
60723;DHT22;46574;52.818;6.516;2023-07-09T02:47:32;21.00;99.90
60723;DHT22;46574;52.818;6.516;2023-07-09T02:49:58;20.90;99.90
60723;DHT22;46574;52.818;6.516;2023-07-09T02:52:23;20.90;99.90
60723;DHT22;46574;52.818;6.516;2023-07-09T02:54:49;20.90;99.90
60723;DHT22;46574;52.818;6.516;2023-07-09T02:57:15;20.90;99.90
60723;DHT22;46574;52.818;6.516;2023-07-09T02:59:41;20.80;99.90
60723;DHT22;46574;52.818;6.516;2023-07-09T03:02:07;20.80;99.90
60723;DHT22;46574;52.818;6.516;2023-07-09T03:04:33;20.80;99.90
60723;DHT22;46574;52.818;6.516;2023-07-09T03:06:59;20.80;99.90
60723;DHT22;46574;52.818;6.516;2023-07-09T03:09:28;20.80;99.90
60723;DHT22;46574;52.818;6.516;2023-07-09T03:11:54;20.70;99.90
60723;DHT22;46574;52.818;6.516;2023-07-09T03:14:20;20.70;99.90
60723;DHT22;46574;52.818;6.516;2023-07-09T03:16:45;20.70;99.90
60723;DHT22;46574;52.818;6.516;2023-07-09T03:19:11;20.70;99.90
60723;DHT22;46574;52.818;6.516;2023-07-09T03:21:36;20.70;99.90
60723;DHT22;46574;52.818;6.516;2023-07-09T03:24:02;20.70;99.90
60723;DHT22;46574;52.818;6.516;2023-07-09T03:26:28;20.70;99.90
60723;DHT22;46574;52.818;6.516;2023-07-09T03:28:54;20.70;99.90
60723;DHT22;46574;52.818;6.516;2023-07-09T03:31:20;20.70;99.90
60723;DHT22;46574;52.818;6.516;2023-07-09T03:33:47;20.80;99.90
60723;DHT22;46574;52.818;6.516;2023-07-09T03:36:13;20.80;99.90
60723;DHT22;46574;52.818;6.516;2023-07-09T03:38:39;20.80;99.90
60723;DHT22;46574;52.818;6.516;2023-07-09T03:41:04;20.80;99.90
60723;DHT22;46574;52.818;6.516;2023-07-09T03:43:30;20.90;99.90
60723;DHT22;46574;52.818;6.516;2023-07-09T03:45:56;20.90;99.90
60723;DHT22;46574;52.818;6.516;2023-07-09T03:48:21;20.90;99.90
60723;DHT22;46574;52.818;6.516;2023-07-09T03:50:48;20.90;99.90
60723;DHT22;46574;52.818;6.516;2023-07-09T03:53:14;20.90;99.90
60723;DHT22;46574;52.818;6.516;2023-07-09T03:55:40;20.90;99.90
60723;DHT22;46574;52.818;6.516;2023-07-09T03:58:07;20.90;99.90
60723;DHT22;46574;52.818;6.516;2023-07-09T04:00:33;20.90;99.90
60723;DHT22;46574;52.818;6.516;2023-07-09T04:02:59;21.00;99.90
60723;DHT22;46574;52.818;6.516;2023-07-09T04:05:26;21.00;99.90
60723;DHT22;46574;52.818;6.516;2023-07-09T04:07:52;21.00;99.90
60723;DHT22;46574;52.818;6.516;2023-07-09T04:10:18;21.00;99.90
60723;DHT22;46574;52.818;6.516;2023-07-09T04:12:45;21.10;99.90
60723;DHT22;46574;52.818;6.516;2023-07-09T04:15:11;21.10;99.90
60723;DHT22;46574;52.818;6.516;2023-07-09T04:17:39;21.10;99.90
60723;DHT22;46574;52.818;6.516;2023-07-09T04:20:06;21.10;99.90
60723;DHT22;46574;52.818;6.516;2023-07-09T04:22:33;21.20;99.90
60723;DHT22;46574;52.818;6.516;2023-07-09T04:24:59;21.20;99.90
60723;DHT22;46574;52.818;6.516;2023-07-09T04:27:25;21.20;99.90
60723;DHT22;46574;52.818;6.516;2023-07-09T04:29:53;21.20;99.90
60723;DHT22;46574;52.818;6.516;2023-07-09T04:32:19;21.20;99.90
60723;DHT22;46574;52.818;6.516;2023-07-09T04:34:45;21.30;99.90
60723;DHT22;46574;52.818;6.516;2023-07-09T04:37:11;21.30;99.90
60723;DHT22;46574;52.818;6.516;2023-07-09T04:39:38;21.30;99.90
60723;DHT22;46574;52.818;6.516;2023-07-09T04:42:08;21.40;99.90
60723;DHT22;46574;52.818;6.516;2023-07-09T04:44:36;21.40;99.90
60723;DHT22;46574;52.818;6.516;2023-07-09T04:47:01;21.50;99.90
60723;DHT22;46574;52.818;6.516;2023-07-09T04:49:27;21.50;99.90
60723;DHT22;46574;52.818;6.516;2023-07-09T04:51:53;21.50;99.90
60723;DHT22;46574;52.818;6.516;2023-07-09T04:54:19;21.60;99.90
60723;DHT22;46574;52.818;6.516;2023-07-09T04:56:48;21.60;99.90
60723;DHT22;46574;52.818;6.516;2023-07-09T04:59:14;21.70;99.90
60723;DHT22;46574;52.818;6.516;2023-07-09T05:01:39;21.70;99.90
60723;DHT22;46574;52.818;6.516;2023-07-09T05:04:05;21.80;99.90
60723;DHT22;46574;52.818;6.516;2023-07-09T05:06:32;21.90;99.90
60723;DHT22;46574;52.818;6.516;2023-07-09T05:08:58;21.90;99.90
60723;DHT22;46574;52.818;6.516;2023-07-09T05:11:24;22.00;99.90
60723;DHT22;46574;52.818;6.516;2023-07-09T05:13:50;22.00;99.90
60723;DHT22;46574;52.818;6.516;2023-07-09T05:16:15;22.10;99.90
60723;DHT22;46574;52.818;6.516;2023-07-09T05:18:42;22.10;99.90
60723;DHT22;46574;52.818;6.516;2023-07-09T05:21:08;22.10;99.90
60723;DHT22;46574;52.818;6.516;2023-07-09T05:23:33;22.20;99.90
60723;DHT22;46574;52.818;6.516;2023-07-09T05:26:00;22.20;99.90
60723;DHT22;46574;52.818;6.516;2023-07-09T05:28:27;22.30;99.90
60723;DHT22;46574;52.818;6.516;2023-07-09T05:30:53;22.30;99.90
60723;DHT22;46574;52.818;6.516;2023-07-09T05:33:19;22.30;99.90
60723;DHT22;46574;52.818;6.516;2023-07-09T05:35:45;22.40;99.90
60723;DHT22;46574;52.818;6.516;2023-07-09T05:38:14;22.40;99.90
60723;DHT22;46574;52.818;6.516;2023-07-09T05:40:41;22.40;99.90
60723;DHT22;46574;52.818;6.516;2023-07-09T05:43:07;22.40;99.90
60723;DHT22;46574;52.818;6.516;2023-07-09T05:45:33;22.40;99.90
60723;DHT22;46574;52.818;6.516;2023-07-09T05:47:59;22.50;99.90
60723;DHT22;46574;52.818;6.516;2023-07-09T05:50:27;22.50;99.90
60723;DHT22;46574;52.818;6.516;2023-07-09T05:52:53;22.50;99.90
60723;DHT22;46574;52.818;6.516;2023-07-09T05:55:18;22.50;99.90
60723;DHT22;46574;52.818;6.516;2023-07-09T05:57:44;22.50;99.90
60723;DHT22;46574;52.818;6.516;2023-07-09T06:00:10;22.50;99.90
60723;DHT22;46574;52.818;6.516;2023-07-09T06:02:38;22.60;99.90
60723;DHT22;46574;52.818;6.516;2023-07-09T06:05:04;22.60;99.90
60723;DHT22;46574;52.818;6.516;2023-07-09T06:07:30;22.60;99.90
60723;DHT22;46574;52.818;6.516;2023-07-09T06:09:56;22.70;99.90
60723;DHT22;46574;52.818;6.516;2023-07-09T06:12:22;22.70;99.90
60723;DHT22;46574;52.818;6.516;2023-07-09T06:14:48;22.80;99.90
60723;DHT22;46574;52.818;6.516;2023-07-09T06:17:14;22.80;99.90
60723;DHT22;46574;52.818;6.516;2023-07-09T06:19:40;22.90;99.90
60723;DHT22;46574;52.818;6.516;2023-07-09T06:22:06;22.90;99.90
60723;DHT22;46574;52.818;6.516;2023-07-09T06:24:32;23.00;99.90
60723;DHT22;46574;52.818;6.516;2023-07-09T06:26:57;23.00;99.90
60723;DHT22;46574;52.818;6.516;2023-07-09T06:29:24;23.10;99.90
60723;DHT22;46574;52.818;6.516;2023-07-09T06:31:50;23.20;99.90
60723;DHT22;46574;52.818;6.516;2023-07-09T06:34:16;23.30;99.90
60723;DHT22;46574;52.818;6.516;2023-07-09T06:36:42;23.30;99.90
60723;DHT22;46574;52.818;6.516;2023-07-09T06:39:07;23.40;99.90
60723;DHT22;46574;52.818;6.516;2023-07-09T06:41:33;23.50;99.90
60723;DHT22;46574;52.818;6.516;2023-07-09T06:44:07;23.50;99.90
60723;DHT22;46574;52.818;6.516;2023-07-09T06:46:34;23.60;99.90
60723;DHT22;46574;52.818;6.516;2023-07-09T06:49:00;23.70;99.90
60723;DHT22;46574;52.818;6.516;2023-07-09T06:51:26;23.70;99.90
60723;DHT22;46574;52.818;6.516;2023-07-09T06:53:52;23.80;99.90
60723;DHT22;46574;52.818;6.516;2023-07-09T06:56:17;23.80;99.90
60723;DHT22;46574;52.818;6.516;2023-07-09T06:58:43;23.90;99.90
60723;DHT22;46574;52.818;6.516;2023-07-09T07:01:11;24.00;99.90
60723;DHT22;46574;52.818;6.516;2023-07-09T07:03:38;24.10;99.90
60723;DHT22;46574;52.818;6.516;2023-07-09T07:06:04;24.20;99.90
60723;DHT22;46574;52.818;6.516;2023-07-09T07:08:32;24.20;99.90
60723;DHT22;46574;52.818;6.516;2023-07-09T07:11:01;24.30;99.90
60723;DHT22;46574;52.818;6.516;2023-07-09T07:13:29;24.40;99.90
60723;DHT22;46574;52.818;6.516;2023-07-09T07:15:54;24.50;99.90
60723;DHT22;46574;52.818;6.516;2023-07-09T07:18:20;24.60;99.90
60723;DHT22;46574;52.818;6.516;2023-07-09T07:20:46;24.70;99.90
60723;DHT22;46574;52.818;6.516;2023-07-09T07:23:12;24.80;99.90
60723;DHT22;46574;52.818;6.516;2023-07-09T07:25:38;24.90;99.90
60723;DHT22;46574;52.818;6.516;2023-07-09T07:28:03;25.00;99.90
60723;DHT22;46574;52.818;6.516;2023-07-09T07:30:29;25.10;99.90
60723;DHT22;46574;52.818;6.516;2023-07-09T07:32:55;25.20;99.90
60723;DHT22;46574;52.818;6.516;2023-07-09T07:35:21;25.30;99.90
60723;DHT22;46574;52.818;6.516;2023-07-09T07:37:47;25.40;99.90
60723;DHT22;46574;52.818;6.516;2023-07-09T07:40:12;25.50;99.90
60723;DHT22;46574;52.818;6.516;2023-07-09T07:42:38;25.60;99.90
60723;DHT22;46574;52.818;6.516;2023-07-09T07:45:04;25.70;99.90
60723;DHT22;46574;52.818;6.516;2023-07-09T07:47:31;25.80;99.90
60723;DHT22;46574;52.818;6.516;2023-07-09T07:49:57;25.90;99.90
60723;DHT22;46574;52.818;6.516;2023-07-09T07:52:23;26.00;99.90
60723;DHT22;46574;52.818;6.516;2023-07-09T07:54:50;26.10;99.90
60723;DHT22;46574;52.818;6.516;2023-07-09T07:57:16;26.30;99.90
60723;DHT22;46574;52.818;6.516;2023-07-09T07:59:41;26.40;99.90
60723;DHT22;46574;52.818;6.516;2023-07-09T08:02:12;26.50;99.90
60723;DHT22;46574;52.818;6.516;2023-07-09T08:04:38;26.60;99.90
60723;DHT22;46574;52.818;6.516;2023-07-09T08:07:06;26.60;99.90
60723;DHT22;46574;52.818;6.516;2023-07-09T08:09:33;26.70;99.90
60723;DHT22;46574;52.818;6.516;2023-07-09T08:11:59;26.90;99.90
60723;DHT22;46574;52.818;6.516;2023-07-09T08:14:24;27.00;99.90
60723;DHT22;46574;52.818;6.516;2023-07-09T08:16:50;27.10;99.90
60723;DHT22;46574;52.818;6.516;2023-07-09T08:19:19;27.20;99.90
60723;DHT22;46574;52.818;6.516;2023-07-09T08:21:45;27.40;99.90
60723;DHT22;46574;52.818;6.516;2023-07-09T08:24:11;27.40;99.90
60723;DHT22;46574;52.818;6.516;2023-07-09T08:26:37;27.50;99.90
60723;DHT22;46574;52.818;6.516;2023-07-09T08:29:03;27.60;99.90
60723;DHT22;46574;52.818;6.516;2023-07-09T08:31:30;27.70;99.90
60723;DHT22;46574;52.818;6.516;2023-07-09T08:33:56;27.90;99.90
60723;DHT22;46574;52.818;6.516;2023-07-09T08:36:23;28.10;99.90
60723;DHT22;46574;52.818;6.516;2023-07-09T08:38:49;28.20;99.90
60723;DHT22;46574;52.818;6.516;2023-07-09T08:49:52;28.70;99.90
60723;DHT22;46574;52.818;6.516;2023-07-09T08:52:39;28.80;99.90
60723;DHT22;46574;52.818;6.516;2023-07-09T08:57:38;29.10;99.90
60723;DHT22;46574;52.818;6.516;2023-07-09T09:02:54;29.30;99.90
60723;DHT22;46574;52.818;6.516;2023-07-09T09:05:23;29.50;99.90
60723;DHT22;46574;52.818;6.516;2023-07-09T09:07:58;29.70;99.90
60723;DHT22;46574;52.818;6.516;2023-07-09T09:11:01;29.90;99.90
60723;DHT22;46574;52.818;6.516;2023-07-09T09:13:32;29.90;99.90
60723;DHT22;46574;52.818;6.516;2023-07-09T09:16:04;29.80;99.90
60723;DHT22;46574;52.818;6.516;2023-07-09T09:18:41;29.80;99.90
60723;DHT22;46574;52.818;6.516;2023-07-09T09:21:37;30.00;99.90
60723;DHT22;46574;52.818;6.516;2023-07-09T09:26:42;30.10;99.60
60723;DHT22;46574;52.818;6.516;2023-07-09T09:29:14;30.20;99.90
60723;DHT22;46574;52.818;6.516;2023-07-09T09:31:41;30.30;99.90
60723;DHT22;46574;52.818;6.516;2023-07-09T09:34:20;30.30;99.90
60723;DHT22;46574;52.818;6.516;2023-07-09T09:36:47;30.50;99.90
60723;DHT22;46574;52.818;6.516;2023-07-09T09:39:13;30.70;99.60
60723;DHT22;46574;52.818;6.516;2023-07-09T09:41:39;30.70;98.90
60723;DHT22;46574;52.818;6.516;2023-07-09T09:44:05;30.80;97.30
60723;DHT22;46574;52.818;6.516;2023-07-09T09:46:32;30.80;97.00
60723;DHT22;46574;52.818;6.516;2023-07-09T09:49:02;30.90;96.40
60723;DHT22;46574;52.818;6.516;2023-07-09T09:51:33;30.90;96.50
60723;DHT22;46574;52.818;6.516;2023-07-09T09:54:00;31.00;97.50
60723;DHT22;46574;52.818;6.516;2023-07-09T09:56:34;31.10;95.10
60723;DHT22;46574;52.818;6.516;2023-07-09T09:59:01;31.10;96.50
60723;DHT22;46574;52.818;6.516;2023-07-09T10:01:30;31.30;96.20
60723;DHT22;46574;52.818;6.516;2023-07-09T10:03:58;31.50;95.60
60723;DHT22;46574;52.818;6.516;2023-07-09T10:06:34;31.50;95.10
60723;DHT22;46574;52.818;6.516;2023-07-09T10:11:55;31.40;93.60
60723;DHT22;46574;52.818;6.516;2023-07-09T10:16:51;31.50;93.60
60723;DHT22;46574;52.818;6.516;2023-07-09T10:19:24;31.60;92.90
60723;DHT22;46574;52.818;6.516;2023-07-09T10:22:02;31.60;92.40
60723;DHT22;46574;52.818;6.516;2023-07-09T10:27:19;31.80;92.30
60723;DHT22;46574;52.818;6.516;2023-07-09T10:35:49;32.00;91.40
60723;DHT22;46574;52.818;6.516;2023-07-09T10:38:26;32.10;91.10
60723;DHT22;46574;52.818;6.516;2023-07-09T10:40:56;32.20;91.00
60723;DHT22;46574;52.818;6.516;2023-07-09T10:43:31;32.20;90.60
60723;DHT22;46574;52.818;6.516;2023-07-09T10:46:04;32.20;90.80
60723;DHT22;46574;52.818;6.516;2023-07-09T10:48:38;32.30;90.60
60723;DHT22;46574;52.818;6.516;2023-07-09T10:51:16;32.30;90.10
60723;DHT22;46574;52.818;6.516;2023-07-09T10:53:58;32.30;89.80
60723;DHT22;46574;52.818;6.516;2023-07-09T10:56:28;32.30;89.40
60723;DHT22;46574;52.818;6.516;2023-07-09T10:59:26;32.40;87.80
60723;DHT22;46574;52.818;6.516;2023-07-09T11:01:58;32.40;86.10
60723;DHT22;46574;52.818;6.516;2023-07-09T11:04:31;32.40;86.00
60723;DHT22;46574;52.818;6.516;2023-07-09T11:07:02;32.40;85.60
60723;DHT22;46574;52.818;6.516;2023-07-09T11:09:33;32.40;85.60
60723;DHT22;46574;52.818;6.516;2023-07-09T11:12:06;32.40;85.20
60723;DHT22;46574;52.818;6.516;2023-07-09T11:14:50;32.50;86.10
60723;DHT22;46574;52.818;6.516;2023-07-09T11:17:21;32.50;83.70
60723;DHT22;46574;52.818;6.516;2023-07-09T11:19:58;32.50;83.50
60723;DHT22;46574;52.818;6.516;2023-07-09T11:22:27;32.50;84.50
60723;DHT22;46574;52.818;6.516;2023-07-09T11:25:12;32.50;83.20
60723;DHT22;46574;52.818;6.516;2023-07-09T11:28:06;32.50;83.30
60723;DHT22;46574;52.818;6.516;2023-07-09T11:30:32;32.60;82.20
60723;DHT22;46574;52.818;6.516;2023-07-09T11:33:04;32.50;82.70
60723;DHT22;46574;52.818;6.516;2023-07-09T11:38:24;32.50;82.70
60723;DHT22;46574;52.818;6.516;2023-07-09T11:40:52;32.50;83.70
60723;DHT22;46574;52.818;6.516;2023-07-09T11:43:29;32.60;82.20
60723;DHT22;46574;52.818;6.516;2023-07-09T11:46:02;32.60;81.00
60723;DHT22;46574;52.818;6.516;2023-07-09T11:48:30;32.50;81.80
60723;DHT22;46574;52.818;6.516;2023-07-09T11:51:05;32.40;81.90
60723;DHT22;46574;52.818;6.516;2023-07-09T11:53:53;32.50;80.10
60723;DHT22;46574;52.818;6.516;2023-07-09T11:56:20;32.50;78.90
60723;DHT22;46574;52.818;6.516;2023-07-09T12:01:22;32.50;78.40
60723;DHT22;46574;52.818;6.516;2023-07-09T12:03:48;32.50;77.90
60723;DHT22;46574;52.818;6.516;2023-07-09T12:06:29;32.50;78.90
60723;DHT22;46574;52.818;6.516;2023-07-09T12:08:57;32.50;78.50
60723;DHT22;46574;52.818;6.516;2023-07-09T12:11:27;32.50;79.40
60723;DHT22;46574;52.818;6.516;2023-07-09T12:13:54;32.40;79.00
60723;DHT22;46574;52.818;6.516;2023-07-09T12:16:22;32.50;79.00
60723;DHT22;46574;52.818;6.516;2023-07-09T12:18:48;32.50;78.40
60723;DHT22;46574;52.818;6.516;2023-07-09T12:21:14;32.40;78.00
60723;DHT22;46574;52.818;6.516;2023-07-09T12:23:40;32.50;77.10
60723;DHT22;46574;52.818;6.516;2023-07-09T12:26:10;32.50;76.80
60723;DHT22;46574;52.818;6.516;2023-07-09T12:28:37;32.50;77.70
60723;DHT22;46574;52.818;6.516;2023-07-09T12:31:03;32.60;78.00
60723;DHT22;46574;52.818;6.516;2023-07-09T12:33:28;32.80;76.40
60723;DHT22;46574;52.818;6.516;2023-07-09T12:36:03;32.80;76.00
60723;DHT22;46574;52.818;6.516;2023-07-09T12:38:40;32.80;75.30
60723;DHT22;46574;52.818;6.516;2023-07-09T12:41:19;32.80;75.20
60723;DHT22;46574;52.818;6.516;2023-07-09T12:43:46;32.80;73.80
60723;DHT22;46574;52.818;6.516;2023-07-09T12:46:12;32.80;75.00
60723;DHT22;46574;52.818;6.516;2023-07-09T12:48:38;33.00;75.90
60723;DHT22;46574;52.818;6.516;2023-07-09T12:51:07;33.00;75.20
60723;DHT22;46574;52.818;6.516;2023-07-09T12:53:35;33.10;74.70
60723;DHT22;46574;52.818;6.516;2023-07-09T12:56:01;33.10;74.40
60723;DHT22;46574;52.818;6.516;2023-07-09T12:58:32;33.00;74.80
60723;DHT22;46574;52.818;6.516;2023-07-09T13:01:06;32.90;75.20
60723;DHT22;46574;52.818;6.516;2023-07-09T13:03:33;32.90;75.90
60723;DHT22;46574;52.818;6.516;2023-07-09T13:06:04;32.90;75.00
60723;DHT22;46574;52.818;6.516;2023-07-09T13:08:32;32.80;76.50
60723;DHT22;46574;52.818;6.516;2023-07-09T13:11:00;32.80;75.30
60723;DHT22;46574;52.818;6.516;2023-07-09T13:13:26;32.70;75.00
60723;DHT22;46574;52.818;6.516;2023-07-09T13:15:55;32.50;74.20
60723;DHT22;46574;52.818;6.516;2023-07-09T13:18:23;32.40;74.30
60723;DHT22;46574;52.818;6.516;2023-07-09T13:20:54;32.30;74.40
60723;DHT22;46574;52.818;6.516;2023-07-09T13:23:24;32.20;74.90
60723;DHT22;46574;52.818;6.516;2023-07-09T13:25:50;32.10;75.90
60723;DHT22;46574;52.818;6.516;2023-07-09T13:28:20;32.00;77.10
60723;DHT22;46574;52.818;6.516;2023-07-09T13:30:51;31.90;77.70
60723;DHT22;46574;52.818;6.516;2023-07-09T13:33:17;31.80;78.70
60723;DHT22;46574;52.818;6.516;2023-07-09T13:35:44;31.60;80.10
60723;DHT22;46574;52.818;6.516;2023-07-09T13:38:21;31.50;81.40
60723;DHT22;46574;52.818;6.516;2023-07-09T13:40:49;31.40;82.80
60723;DHT22;46574;52.818;6.516;2023-07-09T13:43:19;31.20;83.40
60723;DHT22;46574;52.818;6.516;2023-07-09T13:45:45;31.10;85.80
60723;DHT22;46574;52.818;6.516;2023-07-09T13:48:18;31.00;88.50
60723;DHT22;46574;52.818;6.516;2023-07-09T13:50:46;31.00;90.50
60723;DHT22;46574;52.818;6.516;2023-07-09T13:53:18;31.00;91.60
60723;DHT22;46574;52.818;6.516;2023-07-09T13:55:45;31.00;92.50
60723;DHT22;46574;52.818;6.516;2023-07-09T13:58:13;31.00;93.20
60723;DHT22;46574;52.818;6.516;2023-07-09T14:00:41;31.10;92.70
60723;DHT22;46574;52.818;6.516;2023-07-09T14:03:26;31.30;93.40
60723;DHT22;46574;52.818;6.516;2023-07-09T14:05:53;31.40;92.70
60723;DHT22;46574;52.818;6.516;2023-07-09T14:08:20;31.50;92.20
60723;DHT22;46574;52.818;6.516;2023-07-09T14:10:47;31.60;92.50
60723;DHT22;46574;52.818;6.516;2023-07-09T14:13:18;31.60;93.00
60723;DHT22;46574;52.818;6.516;2023-07-09T14:15:45;31.50;93.70
60723;DHT22;46574;52.818;6.516;2023-07-09T14:18:16;31.50;94.70
60723;DHT22;46574;52.818;6.516;2023-07-09T14:20:42;31.40;95.40
60723;DHT22;46574;52.818;6.516;2023-07-09T14:23:15;31.30;96.60
60723;DHT22;46574;52.818;6.516;2023-07-09T14:25:42;31.20;97.10
60723;DHT22;46574;52.818;6.516;2023-07-09T14:28:14;31.10;97.40
60723;DHT22;46574;52.818;6.516;2023-07-09T14:30:40;31.00;97.80
60723;DHT22;46574;52.818;6.516;2023-07-09T14:33:15;30.80;98.60
60723;DHT22;46574;52.818;6.516;2023-07-09T14:35:43;30.70;99.20
60723;DHT22;46574;52.818;6.516;2023-07-09T14:38:21;30.60;99.90
60723;DHT22;46574;52.818;6.516;2023-07-09T14:40:49;30.50;99.90
60723;DHT22;46574;52.818;6.516;2023-07-09T14:43:15;30.40;99.90
60723;DHT22;46574;52.818;6.516;2023-07-09T14:45:42;30.30;99.90
60723;DHT22;46574;52.818;6.516;2023-07-09T14:48:12;30.20;99.90
60723;DHT22;46574;52.818;6.516;2023-07-09T14:50:39;30.10;99.90
60723;DHT22;46574;52.818;6.516;2023-07-09T14:53:14;30.10;99.90
60723;DHT22;46574;52.818;6.516;2023-07-09T14:55:41;30.00;99.90
60723;DHT22;46574;52.818;6.516;2023-07-09T14:58:15;29.90;99.90
60723;DHT22;46574;52.818;6.516;2023-07-09T15:00:42;29.90;99.90
60723;DHT22;46574;52.818;6.516;2023-07-09T15:03:09;29.90;99.90
60723;DHT22;46574;52.818;6.516;2023-07-09T15:05:36;29.80;99.90
60723;DHT22;46574;52.818;6.516;2023-07-09T15:08:12;29.50;99.90
60723;DHT22;46574;52.818;6.516;2023-07-09T15:10:39;29.10;99.90
60723;DHT22;46574;52.818;6.516;2023-07-09T15:13:05;28.80;99.90
60723;DHT22;46574;52.818;6.516;2023-07-09T15:15:33;28.20;99.90
60723;DHT22;46574;52.818;6.516;2023-07-09T15:18:00;26.80;99.90
60723;DHT22;46574;52.818;6.516;2023-07-09T15:20:33;24.70;99.90
60723;DHT22;46574;52.818;6.516;2023-07-09T15:23:00;23.00;99.90
60723;DHT22;46574;52.818;6.516;2023-07-09T15:25:27;22.50;99.90
60723;DHT22;46574;52.818;6.516;2023-07-09T15:27:54;22.30;99.90
60723;DHT22;46574;52.818;6.516;2023-07-09T15:30:24;22.30;99.90
60723;DHT22;46574;52.818;6.516;2023-07-09T15:32:51;21.90;99.90
60723;DHT22;46574;52.818;6.516;2023-07-09T15:35:18;21.70;99.90
60723;DHT22;46574;52.818;6.516;2023-07-09T15:37:45;21.40;99.90
60723;DHT22;46574;52.818;6.516;2023-07-09T15:42:41;21.00;99.90
60723;DHT22;46574;52.818;6.516;2023-07-09T15:45:07;20.90;99.90
60723;DHT22;46574;52.818;6.516;2023-07-09T15:47:33;20.70;99.90
60723;DHT22;46574;52.818;6.516;2023-07-09T15:50:00;20.60;99.90
60723;DHT22;46574;52.818;6.516;2023-07-09T15:52:26;20.50;99.90
60723;DHT22;46574;52.818;6.516;2023-07-09T15:54:51;20.40;99.90
60723;DHT22;46574;52.818;6.516;2023-07-09T15:57:17;20.30;99.90
60723;DHT22;46574;52.818;6.516;2023-07-09T15:59:43;20.30;99.90
60723;DHT22;46574;52.818;6.516;2023-07-09T16:02:13;20.20;99.90
60723;DHT22;46574;52.818;6.516;2023-07-09T16:04:42;20.20;99.90
60723;DHT22;46574;52.818;6.516;2023-07-09T16:07:09;20.20;99.90
60723;DHT22;46574;52.818;6.516;2023-07-09T16:09:35;20.30;99.90
60723;DHT22;46574;52.818;6.516;2023-07-09T16:12:01;20.30;99.90
60723;DHT22;46574;52.818;6.516;2023-07-09T16:14:29;20.30;99.90
60723;DHT22;46574;52.818;6.516;2023-07-09T16:16:56;20.30;99.90
60723;DHT22;46574;52.818;6.516;2023-07-09T16:19:25;20.30;99.90
60723;DHT22;46574;52.818;6.516;2023-07-09T16:22:02;20.40;99.90